Time;durP1;ratioP1;P1;durP2;ratioP2;P2;SDS_P1;SDS_P2;PMS_P1;PMS_P2;Temp;Humidity;BMP_temperature;BMP_pressure;BME280_temperature;BME280_humidity;BME280_pressure;Samples;Min_cycle;Max_cycle;Signal;HPM_P1;HPM_P2
2023/04/01 00:00:54;;;;;;;6.60;1.80;;;;;;;23.58;37.64;98272.94;4330032;33;34015;-69
2023/04/01 00:03:22;;;;;;;5.85;2.00;;;;;;;23.57;37.74;98273.22;4330073;33;33409;-69
2023/04/01 00:08:36;;;;;;;6.15;1.70;;;;;;;23.56;37.75;98286.00;4332078;33;34026;-68
2023/04/01 00:11:04;;;;;;;2.83;1.58;;;;;;;23.55;37.76;98287.09;4331703;33;34191;-68
2023/04/01 00:13:32;;;;;;;4.28;1.50;;;;;;;23.54;37.83;98285.44;4319758;33;33271;-68
2023/04/01 00:16:01;;;;;;;5.20;1.62;;;;;;;23.55;37.84;98278.94;4331784;33;33890;-68
2023/04/01 00:18:30;;;;;;;3.75;1.40;;;;;;;23.55;37.88;98284.38;4332837;33;34157;-68
2023/04/01 00:20:57;;;;;;;3.50;1.20;;;;;;;23.54;37.90;98280.00;4331673;33;34206;-71
2023/04/01 00:23:26;;;;;;;5.87;1.92;;;;;;;23.54;37.91;98281.91;4343898;33;33959;-68
2023/04/01 00:25:53;;;;;;;5.57;1.87;;;;;;;23.53;37.94;98281.09;4337917;33;33808;-71
2023/04/01 00:28:20;;;;;;;4.15;1.60;;;;;;;23.53;37.96;98286.53;4334166;33;33053;-68
2023/04/01 00:30:48;;;;;;;3.85;1.58;;;;;;;23.53;37.97;98272.91;4334424;33;33865;-72
2023/04/01 00:33:16;;;;;;;5.00;1.42;;;;;;;23.53;38.05;98272.09;4334229;33;33244;-68
2023/04/01 00:35:44;;;;;;;3.72;1.48;;;;;;;23.52;38.06;98265.84;4334376;33;34653;-69
2023/04/01 00:38:12;;;;;;;3.97;1.60;;;;;;;23.53;38.09;98275.66;4310248;33;33046;-68
2023/04/01 00:40:44;;;;;;;4.60;1.62;;;;;;;23.51;38.13;98275.09;4330126;33;33178;-67
2023/04/01 00:43:18;;;;;;;4.53;1.70;;;;;;;23.52;38.21;98263.13;4321957;33;32574;-67
2023/04/01 00:45:47;;;;;;;4.37;1.73;;;;;;;23.54;38.27;98268.28;4322359;33;33864;-68
2023/04/01 00:48:16;;;;;;;4.18;1.60;;;;;;;23.53;38.27;98270.19;4322469;33;34035;-69
2023/04/01 00:51:11;;;;;;;5.35;1.75;;;;;;;23.54;38.38;98273.75;4322239;33;34122;-68
2023/04/01 00:53:41;;;;;;;3.47;1.30;;;;;;;23.55;38.32;98269.91;4336366;33;33207;-67
2023/04/01 00:56:17;;;;;;;3.10;1.60;;;;;;;23.53;38.35;98264.75;4334285;33;33542;-69
2023/04/01 00:58:47;;;;;;;3.92;1.58;;;;;;;23.52;38.29;98268.56;4310508;33;33207;-68
2023/04/01 01:01:15;;;;;;;3.40;1.23;;;;;;;23.51;38.29;98263.41;4322157;33;34837;-67
2023/04/01 01:03:42;;;;;;;3.50;1.52;;;;;;;23.51;38.28;98264.22;4321494;33;33800;-68
2023/04/01 01:06:25;;;;;;;3.55;1.50;;;;;;;23.51;38.30;98268.84;4334082;33;33612;-67
2023/04/01 01:09:18;;;;;;;3.12;1.30;;;;;;;23.49;38.32;98271.81;4347454;33;34100;-68
2023/04/01 01:12:06;;;;;;;6.05;1.67;;;;;;;23.51;38.30;98266.94;4322483;33;33745;-68
2023/04/01 01:14:39;;;;;;;4.03;1.50;;;;;;;23.49;38.33;98266.34;4347377;33;34416;-68
2023/04/01 01:17:25;;;;;;;2.67;1.35;;;;;;;23.49;38.34;98265.53;4334087;33;33642;-67
2023/04/01 01:20:20;;;;;;;3.47;1.23;;;;;;;23.50;38.29;98264.47;4334073;33;33892;-69
2023/04/01 01:23:31;;;;;;;3.10;1.50;;;;;;;23.49;38.26;98252.75;4322998;33;34120;-69
2023/04/01 01:26:05;;;;;;;4.32;1.62;;;;;;;23.49;38.23;98257.38;4322974;33;32469;-68
2023/04/01 01:28:57;;;;;;;4.40;1.50;;;;;;;23.45;38.31;98257.06;4347515;33;33861;-68
2023/04/01 01:31:34;;;;;;;4.90;1.30;;;;;;;23.46;38.28;98258.75;4347299;33;34754;-68
2023/04/01 01:34:06;;;;;;;2.95;1.50;;;;;;;23.45;38.35;98259.81;4322429;33;33133;-68
2023/04/01 01:36:37;;;;;;;3.65;1.58;;;;;;;23.45;38.29;98258.97;4347215;33;34483;-68
2023/04/01 01:39:06;;;;;;;2.92;1.33;;;;;;;23.44;38.30;98252.72;4322660;33;33107;-68
2023/04/01 01:41:33;;;;;;;4.55;1.60;;;;;;;23.43;38.31;98254.63;4321520;33;32938;-69
2023/04/01 01:44:01;;;;;;;4.15;1.73;;;;;;;23.45;38.24;98258.97;4321703;33;34844;-68
2023/04/01 01:46:29;;;;;;;4.70;1.77;;;;;;;23.45;38.22;98258.97;4321859;33;33239;-69
2023/04/01 01:48:57;;;;;;;4.47;1.67;;;;;;;23.44;38.22;98252.72;4321604;33;33960;-68
2023/04/01 01:51:25;;;;;;;2.65;1.35;;;;;;;23.42;38.19;98255.72;4309571;33;33096;-69
2023/04/01 01:53:53;;;;;;;3.92;1.40;;;;;;;23.44;38.16;98255.44;4322167;33;34182;-69
2023/04/01 01:56:23;;;;;;;2.90;1.12;;;;;;;23.41;38.15;98256.81;4333662;33;33542;-69
2023/04/01 01:58:52;;;;;;;4.80;1.27;;;;;;;23.42;38.19;98260.34;4321731;33;33910;-68
2023/04/01 02:01:23;;;;;;;2.65;1.35;;;;;;;23.43;38.26;98259.25;4321779;33;33205;-69
2023/04/01 02:03:52;;;;;;;3.00;1.30;;;;;;;23.45;38.38;98253.53;4309591;33;34063;-70
2023/04/01 02:06:21;;;;;;;3.30;1.42;;;;;;;23.44;38.43;98252.72;4321676;33;34306;-70
2023/04/01 02:08:58;;;;;;;2.40;1.10;;;;;;;23.43;38.41;98251.91;4321838;33;33800;-67
2023/04/01 02:11:53;;;;;;;4.70;1.40;;;;;;;23.46;38.42;98249.75;4346947;33;33859;-69
2023/04/01 02:14:25;;;;;;;4.05;1.58;;;;;;;23.46;38.42;98247.84;4328008;33;34067;-69
2023/04/01 02:17:00;;;;;;;8.45;1.80;;;;;;;23.45;38.45;98248.09;4321846;33;32703;-70
2023/04/01 02:19:31;;;;;;;4.12;1.60;;;;;;;23.43;38.49;98238.31;4333722;33;34346;-69
2023/04/01 02:22:00;;;;;;;3.55;1.20;;;;;;;23.44;38.50;98241.84;4321775;33;33622;-69
2023/04/01 02:24:29;;;;;;;4.12;1.65;;;;;;;23.44;38.48;98236.38;4321644;33;33734;-69
2023/04/01 02:26:56;;;;;;;4.07;1.50;;;;;;;23.44;38.46;98230.94;4309186;33;32471;-67
2023/04/01 02:29:25;;;;;;;4.60;1.65;;;;;;;23.44;38.47;98236.38;4333286;33;33824;-67
2023/04/01 02:31:53;;;;;;;5.43;1.42;;;;;;;23.44;38.41;98230.94;4297367;33;33126;-70
2023/04/01 02:34:21;;;;;;;4.82;1.30;;;;;;;23.42;38.39;98227.69;4321744;33;33929;-68
2023/04/01 02:36:49;;;;;;;3.55;1.52;;;;;;;23.42;38.42;98224.97;4321557;33;34527;-70
2023/04/01 02:39:16;;;;;;;4.03;1.80;;;;;;;23.41;38.39;98221.44;4309978;33;33599;-67
2023/04/01 02:41:44;;;;;;;2.65;1.35;;;;;;;23.41;38.39;98224.16;4321126;33;33227;-68
2023/04/01 02:44:13;;;;;;;4.18;1.42;;;;;;;23.41;38.37;98226.88;4321119;33;32850;-67
2023/04/01 02:46:41;;;;;;;2.97;1.37;;;;;;;23.42;38.34;98222.25;4345576;33;33246;-68
2023/04/01 02:49:08;;;;;;;4.10;1.87;;;;;;;23.42;38.36;98224.97;4321435;33;33721;-71
2023/04/01 02:51:36;;;;;;;5.57;1.50;;;;;;;23.43;38.34;98227.41;4321207;33;34694;-71
2023/04/01 02:54:03;;;;;;;3.47;1.40;;;;;;;23.43;38.32;98223.88;4320980;33;34253;-69
2023/04/01 02:56:31;;;;;;;3.85;1.48;;;;;;;23.42;38.31;98231.22;4321219;33;31718;-68
2023/04/01 02:58:59;;;;;;;7.40;1.45;;;;;;;23.42;38.29;98231.22;4333478;33;33993;-67
2023/04/01 03:01:26;;;;;;;2.60;1.40;;;;;;;23.42;38.23;98233.13;4320922;33;33835;-71
2023/04/01 03:03:54;;;;;;;6.78;1.45;;;;;;;23.42;38.17;98235.84;4346588;33;34143;-67
2023/04/01 03:06:21;;;;;;;6.82;1.80;;;;;;;23.40;38.18;98236.09;4333246;33;33686;-74
2023/04/01 03:08:49;;;;;;;6.18;1.80;;;;;;;23.41;38.23;98237.75;4333142;33;33454;-68
2023/04/01 03:11:17;;;;;;;4.20;1.23;;;;;;;23.39;38.19;98230.94;4321000;33;33155;-68
2023/04/01 03:13:44;;;;;;;6.93;1.30;;;;;;;23.39;38.18;98229.03;4333422;33;33908;-67
2023/04/01 03:16:12;;;;;;;1.83;1.00;;;;;;;23.39;38.21;98225.47;4333307;33;34147;-69
2023/04/01 03:18:40;;;;;;;4.45;1.30;;;;;;;23.39;38.24;98231.75;4333214;33;34399;-68
2023/04/01 03:21:18;;;;;;;6.70;1.50;;;;;;;23.39;38.23;98233.66;4326150;33;33056;-69
2023/04/01 03:23:46;;;;;;;5.50;1.40;;;;;;;23.38;38.24;98235.56;4318497;33;34137;-69
2023/04/01 03:26:14;;;;;;;2.85;1.30;;;;;;;23.39;38.20;98239.91;4318114;33;34043;-70
2023/04/01 03:28:41;;;;;;;6.00;1.40;;;;;;;23.38;38.22;98240.19;4329788;33;34655;-75
2023/04/01 03:31:09;;;;;;;3.78;1.40;;;;;;;23.38;38.22;98242.91;4319078;33;33119;-73
2023/04/01 03:33:37;;;;;;;4.28;1.30;;;;;;;23.39;38.23;98239.09;4320538;33;35356;-71
2023/04/01 03:36:06;;;;;;;3.97;1.48;;;;;;;23.40;38.18;98246.16;4345877;33;34363;-73
2023/04/01 03:38:34;;;;;;;4.75;1.20;;;;;;;23.41;38.26;98253.28;4320794;33;33640;-70
2023/04/01 03:41:02;;;;;;;2.75;1.48;;;;;;;23.41;38.31;98254.09;4319134;33;34702;-74
2023/04/01 03:43:30;;;;;;;4.43;1.30;;;;;;;23.42;38.33;98253.00;4332542;33;34180;-69
2023/04/01 03:45:58;;;;;;;5.62;1.30;;;;;;;23.43;38.33;98254.63;4332544;33;33361;-68
2023/04/01 03:48:26;;;;;;;2.75;1.40;;;;;;;23.42;38.33;98249.47;4323069;33;33347;-68
2023/04/01 03:50:53;;;;;;;5.05;1.55;;;;;;;23.42;38.34;98252.19;4317344;33;34043;-73
2023/04/01 03:53:21;;;;;;;2.35;1.20;;;;;;;23.41;38.38;98254.09;4317678;33;34088;-69
2023/04/01 03:55:51;;;;;;;3.25;1.20;;;;;;;23.43;38.37;98264.69;4282154;33;32237;-73
2023/04/01 03:58:18;;;;;;;3.60;1.23;;;;;;;23.41;38.37;98261.44;4330978;33;34588;-71
2023/04/01 04:00:46;;;;;;;5.72;1.08;;;;;;;23.41;38.38;98258.72;4331127;33;33412;-73
2023/04/01 04:03:14;;;;;;;2.15;1.12;;;;;;;23.40;38.40;98257.88;4317166;33;33138;-69
2023/04/01 04:05:49;;;;;;;3.53;1.20;;;;;;;23.40;38.38;98268.75;4304967;33;32374;-71
2023/04/01 04:08:17;;;;;;;2.72;1.15;;;;;;;23.42;38.32;98268.50;4293772;33;33351;-74
2023/04/01 04:10:48;;;;;;;2.87;1.08;;;;;;;23.41;38.36;98266.88;4306058;33;33875;-74
2023/04/01 04:13:15;;;;;;;2.17;1.20;;;;;;;23.41;38.31;98272.31;4293568;33;33395;-69
2023/04/01 04:15:44;;;;;;;4.40;1.37;;;;;;;23.41;38.31;98264.16;4330845;33;33215;-73
2023/04/01 04:18:11;;;;;;;3.10;1.48;;;;;;;23.41;38.33;98264.97;4317309;33;33475;-74
2023/04/01 04:20:50;;;;;;;4.03;1.20;;;;;;;23.41;38.32;98261.44;4317395;33;33588;-71
2023/04/01 04:23:19;;;;;;;3.75;1.67;;;;;;;23.41;38.34;98264.16;4294836;33;34041;-69
2023/04/01 04:26:13;;;;;;;3.22;1.30;;;;;;;23.41;38.34;98269.59;4330896;33;33544;-72
2023/04/01 04:28:41;;;;;;;3.65;1.35;;;;;;;23.44;38.30;98266.34;4317626;33;33950;-69
2023/04/01 04:31:09;;;;;;;3.10;1.40;;;;;;;23.41;38.33;98256.00;4331684;33;34505;-68
2023/04/01 04:33:40;;;;;;;2.80;1.02;;;;;;;23.40;38.27;98263.31;4330166;33;34020;-72
2023/04/01 04:36:08;;;;;;;2.95;1.25;;;;;;;23.40;38.27;98259.78;4344991;33;33574;-69
2023/04/01 04:38:36;;;;;;;2.05;1.08;;;;;;;23.40;38.27;98259.78;4307810;33;34820;-72
2023/04/01 04:41:08;;;;;;;4.32;1.40;;;;;;;23.41;38.27;98264.16;4329989;33;34232;-67
2023/04/01 04:43:36;;;;;;;3.47;1.35;;;;;;;23.40;38.25;98257.06;4316642;33;34429;-71
2023/04/01 04:46:08;;;;;;;1.67;1.02;;;;;;;23.39;38.25;98261.69;4330459;33;33640;-69
2023/04/01 04:48:37;;;;;;;5.10;1.20;;;;;;;23.39;38.30;98261.69;4316440;33;32753;-69
2023/04/01 04:51:04;;;;;;;4.78;1.35;;;;;;;23.40;38.27;98259.78;4316917;33;34757;-70
2023/04/01 04:53:32;;;;;;;4.10;1.15;;;;;;;23.40;38.29;98262.50;4331796;33;33269;-69
2023/04/01 04:56:00;;;;;;;2.08;0.90;;;;;;;23.40;38.28;98263.31;4332208;33;33133;-70
2023/04/01 04:58:28;;;;;;;3.45;0.93;;;;;;;23.41;38.26;98264.16;4331266;33;33984;-71
2023/04/01 05:00:56;;;;;;;2.85;1.48;;;;;;;23.42;38.25;98265.78;4307306;33;32881;-66
2023/04/01 05:03:24;;;;;;;8.02;1.12;;;;;;;23.41;38.22;98258.72;4331771;33;34679;-71
2023/04/01 05:05:53;;;;;;;4.30;1.45;;;;;;;23.41;38.25;98261.44;4332385;33;33703;-70
2023/04/01 05:08:20;;;;;;;2.22;1.08;;;;;;;23.41;38.26;98258.72;4307016;33;34530;-70
2023/04/01 05:10:48;;;;;;;7.78;1.12;;;;;;;23.40;38.22;98254.31;4319512;33;34787;-68
2023/04/01 05:13:16;;;;;;;2.92;1.30;;;;;;;23.40;38.20;98259.78;4331255;33;34173;-71
2023/04/01 05:15:45;;;;;;;5.50;1.40;;;;;;;23.40;38.12;98257.06;4333007;33;33548;-67
2023/04/01 05:18:13;;;;;;;4.47;1.00;;;;;;;23.39;38.09;98260.88;4331668;33;34783;-71
2023/04/01 05:20:49;;;;;;;3.47;1.27;;;;;;;23.38;38.08;98257.31;4331352;33;33540;-68
2023/04/01 05:23:17;;;;;;;2.40;1.10;;;;;;;23.37;38.08;98258.41;4331385;33;34486;-70
2023/04/01 05:25:45;;;;;;;2.25;1.10;;;;;;;23.37;38.06;98272.03;4294162;33;32497;-68
2023/04/01 05:28:13;;;;;;;4.53;1.20;;;;;;;23.37;38.06;98263.03;4306968;33;32553;-69
2023/04/01 05:30:42;;;;;;;2.20;1.12;;;;;;;23.36;38.04;98275.00;4307636;33;34651;-68
2023/04/01 05:33:10;;;;;;;1.92;1.15;;;;;;;23.37;38.03;98268.50;4331206;33;34215;-71
2023/04/01 05:35:38;;;;;;;4.65;1.20;;;;;;;23.34;38.03;98264.38;4318937;33;32683;-68
2023/04/01 05:38:07;;;;;;;2.85;1.27;;;;;;;23.34;38.05;98274.44;4307677;33;33698;-67
2023/04/01 05:40:34;;;;;;;3.30;1.30;;;;;;;23.35;38.09;98278.78;4317922;33;33245;-71
2023/04/01 05:43:02;;;;;;;2.45;1.10;;;;;;;23.34;38.06;98277.97;4347078;33;33951;-71
2023/04/01 05:45:30;;;;;;;2.45;1.20;;;;;;;23.34;38.05;98277.16;4334114;33;33747;-70
2023/04/01 05:48:01;;;;;;;2.72;1.27;;;;;;;23.34;38.05;98282.59;4334151;33;32769;-72
2023/04/01 05:50:29;;;;;;;2.00;1.20;;;;;;;23.33;38.04;98268.19;4333786;33;34077;-69
2023/04/01 05:52:57;;;;;;;2.92;1.10;;;;;;;23.33;38.04;98268.19;4347182;33;34592;-72
2023/04/01 05:55:24;;;;;;;2.67;1.30;;;;;;;23.33;38.05;98275.53;4309514;33;32891;-67
2023/04/01 05:57:52;;;;;;;2.62;1.35;;;;;;;23.31;38.06;98270.34;4321727;33;33567;-68
2023/04/01 06:00:20;;;;;;;1.33;0.90;;;;;;;23.33;38.07;98275.53;4337372;33;34871;-70
2023/04/01 06:02:47;;;;;;;1.25;1.00;;;;;;;23.32;38.05;98280.16;4313623;33;33672;-67
2023/04/01 06:05:19;;;;;;;2.97;1.00;;;;;;;23.32;38.05;98280.16;4339303;33;33128;-69
2023/04/01 06:07:47;;;;;;;5.78;1.12;;;;;;;23.31;38.11;98277.69;4318786;33;32746;-68
2023/04/01 06:10:18;;;;;;;2.80;1.30;;;;;;;23.31;38.08;98274.97;4314359;33;33505;-68
2023/04/01 06:13:03;;;;;;;2.83;1.27;;;;;;;23.30;38.10;98270.59;4333707;33;33996;-71
2023/04/01 06:15:38;;;;;;;3.33;1.12;;;;;;;23.32;38.10;98266.56;4322510;33;33672;-68
2023/04/01 06:18:42;;;;;;;2.30;1.00;;;;;;;23.30;38.11;98265.97;4322069;33;34415;-69
2023/04/01 06:21:22;;;;;;;4.53;1.00;;;;;;;23.33;38.10;98261.94;4319693;33;32906;-67
2023/04/01 06:23:54;;;;;;;3.55;1.25;;;;;;;23.31;38.15;98264.06;4332543;33;34947;-69
2023/04/01 06:26:28;;;;;;;2.30;0.98;;;;;;;23.27;38.18;98263.81;4330191;33;33345;-70
2023/04/01 06:29:27;;;;;;;1.37;1.02;;;;;;;23.28;38.14;98262.72;4342331;33;34735;-68
2023/04/01 06:32:14;;;;;;;3.08;1.05;;;;;;;23.29;38.10;98269.78;4311699;33;32855;-70
2023/04/01 06:35:19;;;;;;;2.42;1.17;;;;;;;23.30;38.09;98270.59;4331386;33;33751;-69
2023/04/01 06:38:09;;;;;;;1.55;0.95;;;;;;;23.29;38.10;98277.94;4322340;33;33482;-68
2023/04/01 06:40:58;;;;;;;2.78;0.90;;;;;;;23.28;38.13;98273.59;4329604;33;33199;-71
2023/04/01 06:43:38;;;;;;;1.48;0.93;;;;;;;23.27;38.13;98276.56;4331185;33;33878;-72
2023/04/01 06:46:37;;;;;;;5.50;1.55;;;;;;;23.27;38.17;98280.13;4329687;33;33737;-67
2023/04/01 06:49:35;;;;;;;5.50;1.45;;;;;;;23.29;38.22;98279.84;4320282;33;32481;-68
2023/04/01 06:52:31;;;;;;;2.72;1.37;;;;;;;23.29;38.22;98288.84;4342178;33;32939;-70
2023/04/01 06:55:37;;;;;;;4.03;1.30;;;;;;;23.28;38.32;98291.84;4333462;33;33875;-71
2023/04/01 06:58:21;;;;;;;3.05;1.08;;;;;;;23.28;38.39;98286.37;4325264;33;34156;-71
2023/04/01 07:01:14;;;;;;;1.60;0.90;;;;;;;23.27;38.40;98284.72;4313458;33;33455;-71
2023/04/01 07:04:16;;;;;;;2.97;1.17;;;;;;;23.27;38.38;98279.28;4324183;33;33799;-71
2023/04/01 07:07:31;;;;;;;2.25;1.20;;;;;;;23.32;38.31;98271.19;4327297;33;34766;-66
2023/04/01 07:10:00;;;;;;;12.60;1.50;;;;;;;23.36;38.23;98269.53;4345786;33;34409;-69
2023/04/01 07:12:43;;;;;;;7.80;1.50;;;;;;;23.35;38.20;98286.97;4321783;33;33663;-67
2023/04/01 07:15:18;;;;;;;3.45;1.12;;;;;;;23.35;37.74;98276.91;4321183;33;33644;-68
2023/04/01 07:17:47;;;;;;;;;;;;;;;23.33;37.50;98280.97;4332705;33;34642;-69
2023/04/01 07:20:17;;;;;;;3.97;1.23;;;;;;;23.43;37.21;98281.84;4307995;33;32991;-68
2023/04/01 07:22:58;;;;;;;4.25;1.20;;;;;;;23.38;37.38;98287.25;4330092;33;32434;-69
2023/04/01 07:25:31;;;;;;;4.50;1.30;;;;;;;23.38;37.63;98283.72;4320532;33;101004;-71
2023/04/01 07:28:05;;;;;;;2.87;1.00;;;;;;;23.39;37.73;98286.19;4332525;33;33589;-69
2023/04/01 07:31:00;;;;;;;3.08;1.10;;;;;;;23.38;37.79;98284.53;4343606;33;33446;-70
2023/04/01 07:33:41;;;;;;;4.32;1.23;;;;;;;23.41;37.79;98285.94;4328245;33;32718;-71
2023/04/01 07:36:42;;;;;;;3.28;1.10;;;;;;;23.43;37.79;98290.00;4327348;33;33049;-71
2023/04/01 07:39:48;;;;;;;3.53;1.10;;;;;;;23.45;37.55;98283.47;4321851;33;34801;-70
2023/04/01 07:42:31;;;;;;;5.62;1.30;;;;;;;23.42;37.36;98279.41;4299884;33;33787;-70
2023/04/01 07:45:20;;;;;;;4.30;1.35;;;;;;;23.41;37.29;98280.50;4292390;33;33230;-71
2023/04/01 07:47:51;;;;;;;3.72;1.20;;;;;;;23.40;37.24;98268.75;4305983;33;34582;-70
2023/04/01 07:50:26;;;;;;;3.50;1.00;;;;;;;23.38;37.19;98281.81;4327358;33;33790;-71
2023/04/01 07:53:25;;;;;;;4.70;1.30;;;;;;;23.38;37.11;98278.28;4332144;33;33473;-70
2023/04/01 07:56:02;;;;;;;3.03;1.35;;;;;;;23.38;36.99;98278.28;4318986;33;33642;-71
2023/04/01 07:58:43;;;;;;;3.28;1.27;;;;;;;23.35;36.92;98278.78;4326596;33;33741;-71
2023/04/01 08:01:29;;;;;;;4.35;1.00;;;;;;;23.33;36.89;98287.22;4345695;33;34805;-69
2023/04/01 08:04:15;;;;;;;3.85;1.20;;;;;;;23.33;36.86;98289.13;4345617;33;34117;-70
2023/04/01 08:06:51;;;;;;;4.60;1.23;;;;;;;23.31;36.82;98294.00;4332079;33;32579;-70
2023/04/01 08:09:22;;;;;;;3.00;1.00;;;;;;;23.27;36.74;98293.75;4332375;33;33041;-70
2023/04/01 08:12:27;;;;;;;3.12;1.10;;;;;;;23.27;36.68;98295.59;4333015;33;33900;-71
2023/04/01 08:15:12;;;;;;;2.58;0.98;;;;;;;23.29;36.59;98296.19;4345211;33;33736;-69
2023/04/01 08:18:09;;;;;;;3.47;1.10;;;;;;;23.24;36.59;98290.72;4320439;33;33226;-70
2023/04/01 08:21:00;;;;;;;2.92;0.90;;;;;;;23.24;36.54;98294.25;4331643;33;33978;-71
2023/04/01 08:23:30;;;;;;;2.75;0.98;;;;;;;23.23;36.53;98286.34;4328703;33;33924;-71
2023/04/01 08:26:19;;;;;;;2.95;1.15;;;;;;;23.17;36.53;98301.81;4308468;33;34148;-71
2023/04/01 08:28:54;;;;;;;2.55;1.20;;;;;;;23.16;36.50;98297.44;4347419;32;33669;-70
2023/04/01 08:32:00;;;;;;;5.55;1.20;;;;;;;23.11;36.52;98297.41;4334361;33;33933;-71
2023/04/01 08:34:36;;;;;;;2.30;1.15;;;;;;;23.13;36.46;98300.72;4307316;33;33059;-70
2023/04/01 08:37:12;;;;;;;2.55;0.95;;;;;;;23.10;36.44;98296.59;4322177;33;34164;-70
2023/04/01 08:39:56;;;;;;;3.87;1.00;;;;;;;23.07;36.43;98296.28;4309766;33;32530;-69
2023/04/01 08:42:24;;;;;;;5.72;1.50;;;;;;;23.06;36.41;98291.94;4310596;33;32938;-70
2023/04/01 08:45:22;;;;;;;4.05;1.50;;;;;;;23.04;36.35;98292.22;4333716;33;33318;-68
2023/04/01 08:48:19;;;;;;;6.47;1.98;;;;;;;23.05;36.24;98298.47;4333565;33;33948;-71
2023/04/01 08:51:06;;;;;;;3.70;1.30;;;;;;;23.02;36.13;98294.34;4324254;33;32677;-69
2023/04/01 08:54:05;;;;;;;2.45;1.33;;;;;;;22.98;36.08;98298.66;4347008;33;33475;-70
2023/04/01 08:56:41;;;;;;;3.97;1.20;;;;;;;22.98;35.93;98297.84;4346806;33;34745;-71
2023/04/01 08:59:15;;;;;;;3.50;1.33;;;;;;;22.95;35.71;98292.94;4316837;33;34185;-70
2023/04/01 09:01:52;;;;;;;4.37;1.55;;;;;;;22.92;35.61;98292.38;4331620;33;33314;-71
2023/04/01 09:04:39;;;;;;;5.60;1.30;;;;;;;22.92;35.57;98291.56;4337610;33;34436;-71
2023/04/01 09:07:43;;;;;;;4.18;1.45;;;;;;;22.93;35.42;98287.75;4334659;33;33715;-69
2023/04/01 09:10:14;;;;;;;3.72;1.52;;;;;;;22.91;35.34;98281.75;4342207;33;34843;-70
2023/04/01 09:13:30;;;;;;;4.97;1.55;;;;;;;22.89;35.27;98286.63;4346969;33;33722;-70
2023/04/01 09:16:01;;;;;;;4.47;1.33;;;;;;;22.89;35.18;98276.56;4337308;33;34564;-71
2023/04/01 09:18:57;;;;;;;3.75;1.60;;;;;;;22.87;35.15;98286.03;4345585;33;33812;-69
2023/04/01 09:21:47;;;;;;;5.40;1.50;;;;;;;22.89;35.13;98290.16;4347179;33;34876;-70
2023/04/01 09:24:44;;;;;;;2.90;1.27;;;;;;;22.88;34.93;98295.84;4322925;33;32591;-70
2023/04/01 09:27:38;;;;;;;5.75;1.62;;;;;;;22.88;34.92;98293.13;4328386;33;33268;-70
2023/04/01 09:30:34;;;;;;;2.90;1.30;;;;;;;22.87;34.92;98291.47;4317401;33;33531;-71
2023/04/01 09:33:24;;;;;;;3.40;1.30;;;;;;;22.88;34.97;98284.94;4321441;33;32660;-69
2023/04/01 09:36:11;;;;;;;3.10;1.20;;;;;;;22.85;35.09;98277.34;4320678;33;34129;-69
2023/04/01 09:38:55;;;;;;;4.25;1.48;;;;;;;22.83;35.13;98282.19;4320351;33;34618;-69
2023/04/01 09:41:36;;;;;;;4.78;1.40;;;;;;;22.83;35.07;98282.19;4332968;33;32914;-71
2023/04/01 09:44:26;;;;;;;3.85;1.33;;;;;;;22.81;34.91;98282.47;4309862;33;34146;-70
2023/04/01 09:47:32;;;;;;;2.60;1.05;;;;;;;22.81;34.83;98284.38;4345759;33;32028;-69
2023/04/01 09:50:42;;;;;;;3.03;1.00;;;;;;;22.82;34.75;98286.00;4346804;33;34699;-70
2023/04/01 09:53:18;;;;;;;4.20;1.40;;;;;;;22.80;34.67;98296.28;4346899;33;34048;-71
2023/04/01 09:56:18;;;;;;;5.03;1.60;;;;;;;22.77;34.50;98291.41;4333438;33;33110;-69
2023/04/01 09:59:08;;;;;;;4.47;1.12;;;;;;;22.80;34.35;98296.28;4346802;33;34269;-69
2023/04/01 10:02:18;;;;;;;2.83;1.30;;;;;;;22.77;34.28;98294.13;4310984;33;32733;-70
2023/04/01 10:05:08;;;;;;;5.62;1.40;;;;;;;22.77;34.16;98289.50;4321367;33;33188;-69
2023/04/01 10:07:46;;;;;;;3.33;1.37;;;;;;;22.76;34.11;98290.56;4344979;33;34853;-70
2023/04/01 10:10:32;;;;;;;3.92;1.35;;;;;;;22.75;34.01;98299.78;4333172;33;33433;-70
2023/04/01 10:13:03;;;;;;;3.10;1.23;;;;;;;22.77;34.01;98302.28;4333470;33;32782;-70
2023/04/01 10:16:29;;;;;;;4.78;1.27;;;;;;;22.75;34.09;98302.50;4346605;33;33821;-69
2023/04/01 10:19:07;;;;;;;3.22;1.10;;;;;;;22.78;34.13;98309.34;4300399;33;33325;-71
2023/04/01 10:21:52;;;;;;;4.62;1.25;;;;;;;22.75;34.16;98304.41;4275680;33;33062;-70
2023/04/01 10:24:38;;;;;;;3.75;1.42;;;;;;;22.76;34.15;98296.00;4322525;33;33656;-70
2023/04/01 10:27:15;;;;;;;2.67;1.10;;;;;;;22.75;34.12;98298.97;4326588;33;33452;-71
2023/04/01 10:30:07;;;;;;;3.70;1.17;;;;;;;22.76;34.09;98297.91;4340733;33;33216;-69
2023/04/01 10:33:14;;;;;;;2.25;0.95;;;;;;;22.74;34.11;98297.34;4330203;33;34065;-70
2023/04/01 10:36:21;;;;;;;3.67;1.25;;;;;;;22.77;34.10;98303.09;4326157;33;33665;-70
2023/04/01 10:39:11;;;;;;;2.78;1.20;;;;;;;22.75;34.14;98301.69;4344752;33;33708;-69
2023/04/01 10:41:46;;;;;;;;;;;;;;;22.74;34.13;98295.44;4320506;33;33780;-71
2023/04/01 10:44:53;;;;;;;4.85;1.40;;;;;;;22.80;34.02;98294.44;4318187;33;32970;-69
2023/04/01 10:48:05;;;;;;;2.47;0.90;;;;;;;22.76;34.06;98287.03;4332741;33;34294;-70
2023/04/01 10:50:58;;;;;;;2.25;1.02;;;;;;;22.73;34.17;98288.38;4345954;33;33879;-71
2023/04/01 10:54:04;;;;;;;3.87;1.02;;;;;;;22.73;34.17;98284.81;4345150;33;34177;-69
2023/04/01 10:56:35;;;;;;;3.22;1.10;;;;;;;22.71;34.19;98290.53;4344389;33;33660;-70
2023/04/01 10:59:28;;;;;;;2.92;1.10;;;;;;;22.70;34.18;98288.88;4326526;33;32809;-70
2023/04/01 11:02:35;;;;;;;3.37;1.60;;;;;;;22.72;34.17;98284.00;4330899;33;32567;-70
2023/04/01 11:05:26;;;;;;;2.20;1.10;;;;;;;22.73;34.19;98284.81;4344412;33;33034;-70
2023/04/01 11:08:29;;;;;;;3.12;1.23;;;;;;;22.72;34.18;98294.88;4343398;33;34499;-70
2023/04/01 11:10:56;;;;;;;2.25;1.15;;;;;;;22.71;34.18;98285.09;4320707;33;32770;-70
2023/04/01 11:13:30;;;;;;;2.05;1.10;;;;;;;22.72;34.19;98285.91;4344009;33;34660;-71
2023/04/01 11:16:22;;;;;;;2.33;1.02;;;;;;;22.72;34.21;98277.75;4344171;33;34731;-70
2023/04/01 11:19:13;;;;;;;3.37;1.12;;;;;;;22.74;34.21;98289.19;4342634;33;33265;-70
2023/04/01 11:21:55;;;;;;;2.25;0.75;;;;;;;22.74;34.22;98281.03;4321888;33;32889;-70
2023/04/01 11:24:37;;;;;;;1.92;1.10;;;;;;;22.74;34.21;98272.88;4307974;33;33829;-69
2023/04/01 11:27:22;;;;;;;7.10;1.30;;;;;;;22.74;34.18;98287.28;4333060;33;34038;-71
2023/04/01 11:29:59;;;;;;;6.18;1.65;;;;;;;22.75;34.17;98279.94;4332636;33;34210;-70
2023/04/01 11:32:42;;;;;;;4.28;1.23;;;;;;;22.75;34.15;98285.37;4345239;33;33448;-71
2023/04/01 11:35:22;;;;;;;2.78;1.20;;;;;;;22.75;34.15;98280.75;4319843;33;32877;-69
2023/04/01 11:37:50;;;;;;;;;;;;;;;22.74;34.12;98287.28;4346616;32;32969;-72
2023/04/01 11:40:31;;;;;;;3.30;1.20;;;;;;;22.82;33.99;98280.56;4361233;32;32827;-68
2023/04/01 11:43:12;;;;;;;;;;;;;;;22.77;34.03;98281.34;4321946;33;33918;-71
2023/04/01 11:46:27;;;;;;;3.28;1.50;;;;;;;22.83;33.98;98291.16;4321497;33;34032;-69
2023/04/01 11:49:00;;;;;;;3.53;1.10;;;;;;;22.77;34.09;98292.22;4332810;33;33977;-70
2023/04/01 11:51:35;;;;;;;3.55;1.02;;;;;;;22.72;34.18;98294.06;4320956;33;33123;-70
2023/04/01 11:54:20;;;;;;;4.85;1.40;;;;;;;22.71;34.18;98289.69;4330458;33;34402;-69
2023/04/01 11:57:06;;;;;;;5.00;1.52;;;;;;;22.71;34.22;98292.41;4316667;33;33757;-70
2023/04/01 11:59:45;;;;;;;4.25;1.20;;;;;;;22.72;34.23;98294.88;4333510;33;34260;-69
2023/04/01 12:02:28;;;;;;;5.25;1.17;;;;;;;22.71;34.27;98298.69;4332516;33;34402;-69
2023/04/01 12:05:03;;;;;;;3.62;1.10;;;;;;;22.73;34.24;98301.16;4334456;33;33338;-72
2023/04/01 12:08:09;;;;;;;4.93;0.95;;;;;;;22.70;34.25;98301.66;4310409;33;34447;-70
2023/04/01 12:10:39;;;;;;;3.45;1.30;;;;;;;22.74;34.18;98297.34;4330116;33;33599;-71
2023/04/01 12:13:29;;;;;;;3.15;1.10;;;;;;;22.71;34.27;98293.25;4334117;33;33741;-72
2023/04/01 12:16:07;;;;;;;3.47;1.33;;;;;;;22.73;34.22;98291.09;4331970;33;34026;-72
2023/04/01 12:18:44;;;;;;;3.92;1.40;;;;;;;22.73;34.27;98290.25;4336609;33;34395;-72
2023/04/01 12:21:33;;;;;;;7.05;1.67;;;;;;;22.71;34.21;98301.41;4307777;33;33636;-71
2023/04/01 14:15:21;;;;;;;6.87;1.35;;;;;;;22.79;35.29;98322.66;4343513;32;33573;-70
2023/04/01 14:18:20;;;;;;;7.10;1.70;;;;;;;22.79;35.28;98314.50;4350067;32;34726;-67
2023/04/01 14:21:16;;;;;;;3.40;1.35;;;;;;;22.82;35.10;98311.28;4325847;32;32738;-69